sensor_id;sensor_type;location;lat;lon;timestamp;temperature;humidity
40291;DHT22;26000;48.304;13.626;2023-05-29T00:01:40;15.00;99.90
40291;DHT22;26000;48.304;13.626;2023-05-29T00:04:06;15.00;99.90
40291;DHT22;26000;48.304;13.626;2023-05-29T00:06:32;14.90;99.90
40291;DHT22;26000;48.304;13.626;2023-05-29T00:08:57;14.80;99.90
40291;DHT22;26000;48.304;13.626;2023-05-29T00:11:23;14.80;99.90
40291;DHT22;26000;48.304;13.626;2023-05-29T00:13:48;14.60;99.90
40291;DHT22;26000;48.304;13.626;2023-05-29T00:16:14;14.60;99.90
40291;DHT22;26000;48.304;13.626;2023-05-29T00:18:40;14.60;99.90
40291;DHT22;26000;48.304;13.626;2023-05-29T00:21:11;14.60;99.90
40291;DHT22;26000;48.304;13.626;2023-05-29T00:23:37;14.60;99.90
40291;DHT22;26000;48.304;13.626;2023-05-29T00:26:03;14.50;99.90
40291;DHT22;26000;48.304;13.626;2023-05-29T00:28:28;14.60;99.90
40291;DHT22;26000;48.304;13.626;2023-05-29T00:30:54;14.50;99.90
40291;DHT22;26000;48.304;13.626;2023-05-29T00:33:20;14.40;99.90
40291;DHT22;26000;48.304;13.626;2023-05-29T00:35:45;14.50;99.90
40291;DHT22;26000;48.304;13.626;2023-05-29T00:38:11;14.40;99.90
40291;DHT22;26000;48.304;13.626;2023-05-29T00:40:37;14.30;99.90
40291;DHT22;26000;48.304;13.626;2023-05-29T00:43:02;14.20;99.90
40291;DHT22;26000;48.304;13.626;2023-05-29T00:45:28;14.20;99.90
40291;DHT22;26000;48.304;13.626;2023-05-29T00:47:53;14.20;99.90
40291;DHT22;26000;48.304;13.626;2023-05-29T00:50:21;14.20;99.90
40291;DHT22;26000;48.304;13.626;2023-05-29T00:52:49;14.30;99.90
40291;DHT22;26000;48.304;13.626;2023-05-29T00:55:15;14.20;99.90
40291;DHT22;26000;48.304;13.626;2023-05-29T00:57:42;14.30;99.90
40291;DHT22;26000;48.304;13.626;2023-05-29T01:00:08;14.20;99.90
40291;DHT22;26000;48.304;13.626;2023-05-29T01:02:38;14.20;99.90
40291;DHT22;26000;48.304;13.626;2023-05-29T01:05:04;14.20;99.90
40291;DHT22;26000;48.304;13.626;2023-05-29T01:07:32;14.20;99.90
40291;DHT22;26000;48.304;13.626;2023-05-29T01:09:57;14.10;99.90
40291;DHT22;26000;48.304;13.626;2023-05-29T01:12:46;14.10;99.90
40291;DHT22;26000;48.304;13.626;2023-05-29T01:15:33;14.10;99.90
40291;DHT22;26000;48.304;13.626;2023-05-29T01:21:27;14.00;99.90
40291;DHT22;26000;48.304;13.626;2023-05-29T01:29:15;13.90;99.90
40291;DHT22;26000;48.304;13.626;2023-05-29T01:31:44;13.80;99.90
40291;DHT22;26000;48.304;13.626;2023-05-29T01:34:11;13.70;99.90
40291;DHT22;26000;48.304;13.626;2023-05-29T01:36:36;13.60;99.90
40291;DHT22;26000;48.304;13.626;2023-05-29T01:39:03;13.60;99.90
40291;DHT22;26000;48.304;13.626;2023-05-29T01:41:29;13.60;99.90
40291;DHT22;26000;48.304;13.626;2023-05-29T01:43:57;13.60;99.90
40291;DHT22;26000;48.304;13.626;2023-05-29T01:46:24;13.60;99.90
40291;DHT22;26000;48.304;13.626;2023-05-29T01:48:53;13.50;99.90
40291;DHT22;26000;48.304;13.626;2023-05-29T01:51:20;13.60;99.90
40291;DHT22;26000;48.304;13.626;2023-05-29T01:53:46;13.60;99.90
40291;DHT22;26000;48.304;13.626;2023-05-29T01:56:12;13.40;99.90
40291;DHT22;26000;48.304;13.626;2023-05-29T01:58:38;13.50;99.90
40291;DHT22;26000;48.304;13.626;2023-05-29T02:01:06;13.40;99.90
40291;DHT22;26000;48.304;13.626;2023-05-29T02:03:32;13.30;99.90
40291;DHT22;26000;48.304;13.626;2023-05-29T02:05:58;13.30;99.90
40291;DHT22;26000;48.304;13.626;2023-05-29T02:08:24;13.20;99.90
40291;DHT22;26000;48.304;13.626;2023-05-29T02:10:50;13.30;99.90
40291;DHT22;26000;48.304;13.626;2023-05-29T02:13:16;13.30;99.90
40291;DHT22;26000;48.304;13.626;2023-05-29T02:15:42;13.20;99.90
40291;DHT22;26000;48.304;13.626;2023-05-29T02:18:11;13.20;99.90
40291;DHT22;26000;48.304;13.626;2023-05-29T02:20:40;13.20;99.90
40291;DHT22;26000;48.304;13.626;2023-05-29T02:23:07;13.30;99.90
40291;DHT22;26000;48.304;13.626;2023-05-29T02:25:33;13.30;99.90
40291;DHT22;26000;48.304;13.626;2023-05-29T02:27:59;13.20;99.90
40291;DHT22;26000;48.304;13.626;2023-05-29T02:30:24;13.20;99.90
40291;DHT22;26000;48.304;13.626;2023-05-29T02:32:50;13.20;99.90
40291;DHT22;26000;48.304;13.626;2023-05-29T02:35:16;13.20;99.90
40291;DHT22;26000;48.304;13.626;2023-05-29T02:37:43;13.10;99.90
40291;DHT22;26000;48.304;13.626;2023-05-29T02:40:09;13.00;99.90
40291;DHT22;26000;48.304;13.626;2023-05-29T02:42:35;12.90;99.90
40291;DHT22;26000;48.304;13.626;2023-05-29T02:45:01;12.90;99.90
40291;DHT22;26000;48.304;13.626;2023-05-29T02:47:27;12.90;99.90
40291;DHT22;26000;48.304;13.626;2023-05-29T02:49:52;12.90;99.90
40291;DHT22;26000;48.304;13.626;2023-05-29T02:52:18;12.90;99.90
40291;DHT22;26000;48.304;13.626;2023-05-29T02:54:43;12.90;99.90
40291;DHT22;26000;48.304;13.626;2023-05-29T02:57:09;12.80;99.90
40291;DHT22;26000;48.304;13.626;2023-05-29T02:59:35;12.90;99.90
40291;DHT22;26000;48.304;13.626;2023-05-29T03:02:00;13.00;99.90
40291;DHT22;26000;48.304;13.626;2023-05-29T03:04:27;13.00;99.90
40291;DHT22;26000;48.304;13.626;2023-05-29T03:06:53;13.00;99.90
40291;DHT22;26000;48.304;13.626;2023-05-29T03:09:19;13.00;99.90
40291;DHT22;26000;48.304;13.626;2023-05-29T03:11:45;13.00;99.90
40291;DHT22;26000;48.304;13.626;2023-05-29T03:14:13;12.90;99.90
40291;DHT22;26000;48.304;13.626;2023-05-29T03:16:38;13.00;99.90
40291;DHT22;26000;48.304;13.626;2023-05-29T03:19:06;13.00;99.90
40291;DHT22;26000;48.304;13.626;2023-05-29T03:21:32;13.10;99.90
40291;DHT22;26000;48.304;13.626;2023-05-29T03:23:58;13.10;99.90
40291;DHT22;26000;48.304;13.626;2023-05-29T03:26:24;13.00;99.90
40291;DHT22;26000;48.304;13.626;2023-05-29T03:28:51;13.00;99.90
40291;DHT22;26000;48.304;13.626;2023-05-29T03:31:16;13.00;99.90
40291;DHT22;26000;48.304;13.626;2023-05-29T03:33:42;12.90;99.90
40291;DHT22;26000;48.304;13.626;2023-05-29T03:36:08;12.90;99.90
40291;DHT22;26000;48.304;13.626;2023-05-29T03:38:33;13.00;99.90
40291;DHT22;26000;48.304;13.626;2023-05-29T03:40:59;13.10;99.90
40291;DHT22;26000;48.304;13.626;2023-05-29T03:43:25;13.10;99.90
40291;DHT22;26000;48.304;13.626;2023-05-29T03:45:51;13.00;99.90
40291;DHT22;26000;48.304;13.626;2023-05-29T03:48:16;13.10;99.90
40291;DHT22;26000;48.304;13.626;2023-05-29T03:50:42;13.10;99.90
40291;DHT22;26000;48.304;13.626;2023-05-29T03:53:08;13.10;99.90
40291;DHT22;26000;48.304;13.626;2023-05-29T03:55:33;13.20;99.90
40291;DHT22;26000;48.304;13.626;2023-05-29T03:57:59;13.30;99.90
40291;DHT22;26000;48.304;13.626;2023-05-29T04:00:34;13.50;99.90
40291;DHT22;26000;48.304;13.626;2023-05-29T04:03:00;14.10;99.90
40291;DHT22;26000;48.304;13.626;2023-05-29T04:05:31;14.50;99.90
40291;DHT22;26000;48.304;13.626;2023-05-29T04:07:57;14.80;99.90
40291;DHT22;26000;48.304;13.626;2023-05-29T04:10:23;15.10;99.90
40291;DHT22;26000;48.304;13.626;2023-05-29T04:12:51;15.40;99.90
40291;DHT22;26000;48.304;13.626;2023-05-29T04:15:17;15.60;99.90
40291;DHT22;26000;48.304;13.626;2023-05-29T04:17:42;15.80;99.90
40291;DHT22;26000;48.304;13.626;2023-05-29T04:20:08;15.90;99.90
40291;DHT22;26000;48.304;13.626;2023-05-29T04:22:35;16.10;99.90
40291;DHT22;26000;48.304;13.626;2023-05-29T04:25:02;16.10;99.90
40291;DHT22;26000;48.304;13.626;2023-05-29T04:27:29;16.20;99.90
40291;DHT22;26000;48.304;13.626;2023-05-29T04:29:57;16.10;99.90
40291;DHT22;26000;48.304;13.626;2023-05-29T04:32:23;15.90;99.90
40291;DHT22;26000;48.304;13.626;2023-05-29T04:34:49;15.80;99.90
40291;DHT22;26000;48.304;13.626;2023-05-29T04:37:16;15.80;99.90
40291;DHT22;26000;48.304;13.626;2023-05-29T04:39:42;15.70;99.90
40291;DHT22;26000;48.304;13.626;2023-05-29T04:42:08;15.70;99.90
40291;DHT22;26000;48.304;13.626;2023-05-29T04:44:34;15.70;99.90
40291;DHT22;26000;48.304;13.626;2023-05-29T04:46:59;15.70;99.90
40291;DHT22;26000;48.304;13.626;2023-05-29T04:49:28;15.70;99.90
40291;DHT22;26000;48.304;13.626;2023-05-29T04:51:54;15.70;99.90
40291;DHT22;26000;48.304;13.626;2023-05-29T04:54:22;15.80;99.90
40291;DHT22;26000;48.304;13.626;2023-05-29T04:56:48;15.80;99.90
40291;DHT22;26000;48.304;13.626;2023-05-29T04:59:14;15.80;99.90
40291;DHT22;26000;48.304;13.626;2023-05-29T05:01:39;15.80;99.90
40291;DHT22;26000;48.304;13.626;2023-05-29T05:04:08;15.90;99.90
40291;DHT22;26000;48.304;13.626;2023-05-29T05:06:34;16.00;99.90
40291;DHT22;26000;48.304;13.626;2023-05-29T05:08:59;16.00;99.90
40291;DHT22;26000;48.304;13.626;2023-05-29T05:11:26;16.10;99.90
40291;DHT22;26000;48.304;13.626;2023-05-29T05:13:52;16.10;99.90
40291;DHT22;26000;48.304;13.626;2023-05-29T05:16:17;16.30;99.90
40291;DHT22;26000;48.304;13.626;2023-05-29T05:18:44;16.20;99.90
40291;DHT22;26000;48.304;13.626;2023-05-29T05:21:09;16.20;99.90
40291;DHT22;26000;48.304;13.626;2023-05-29T05:23:36;16.30;99.90
40291;DHT22;26000;48.304;13.626;2023-05-29T05:26:02;16.50;99.90
40291;DHT22;26000;48.304;13.626;2023-05-29T05:28:27;16.50;99.90
40291;DHT22;26000;48.304;13.626;2023-05-29T05:30:53;16.60;99.90
40291;DHT22;26000;48.304;13.626;2023-05-29T05:33:19;16.60;99.90
40291;DHT22;26000;48.304;13.626;2023-05-29T05:35:45;16.70;99.90
40291;DHT22;26000;48.304;13.626;2023-05-29T05:38:10;16.80;99.90
40291;DHT22;26000;48.304;13.626;2023-05-29T05:40:36;16.90;99.90
40291;DHT22;26000;48.304;13.626;2023-05-29T05:43:02;17.00;99.90
40291;DHT22;26000;48.304;13.626;2023-05-29T05:45:27;17.10;99.90
40291;DHT22;26000;48.304;13.626;2023-05-29T05:47:53;17.30;99.90
40291;DHT22;26000;48.304;13.626;2023-05-29T05:50:18;17.40;99.90
40291;DHT22;26000;48.304;13.626;2023-05-29T05:52:44;17.60;99.90
40291;DHT22;26000;48.304;13.626;2023-05-29T05:55:10;17.80;99.90
40291;DHT22;26000;48.304;13.626;2023-05-29T05:57:36;18.00;99.90
40291;DHT22;26000;48.304;13.626;2023-05-29T06:00:03;18.20;99.90
40291;DHT22;26000;48.304;13.626;2023-05-29T06:02:38;18.50;99.90
40291;DHT22;26000;48.304;13.626;2023-05-29T06:05:08;18.70;99.90
40291;DHT22;26000;48.304;13.626;2023-05-29T06:07:34;19.00;99.90
40291;DHT22;26000;48.304;13.626;2023-05-29T06:10:01;19.20;99.90
40291;DHT22;26000;48.304;13.626;2023-05-29T06:12:26;19.60;99.90
40291;DHT22;26000;48.304;13.626;2023-05-29T06:14:52;19.80;98.40
40291;DHT22;26000;48.304;13.626;2023-05-29T06:17:18;20.00;98.90
40291;DHT22;26000;48.304;13.626;2023-05-29T06:19:44;20.30;99.20
40291;DHT22;26000;48.304;13.626;2023-05-29T06:22:09;20.30;96.60
40291;DHT22;26000;48.304;13.626;2023-05-29T06:24:35;20.50;97.00
40291;DHT22;26000;48.304;13.626;2023-05-29T06:27:00;20.70;96.40
40291;DHT22;26000;48.304;13.626;2023-05-29T06:29:27;20.70;95.80
40291;DHT22;26000;48.304;13.626;2023-05-29T06:31:52;20.70;95.90
40291;DHT22;26000;48.304;13.626;2023-05-29T06:34:18;21.00;96.20
40291;DHT22;26000;48.304;13.626;2023-05-29T06:36:43;21.10;95.30
40291;DHT22;26000;48.304;13.626;2023-05-29T06:39:09;21.20;95.80
40291;DHT22;26000;48.304;13.626;2023-05-29T06:41:35;21.50;95.40
40291;DHT22;26000;48.304;13.626;2023-05-29T06:44:01;21.60;95.40
40291;DHT22;26000;48.304;13.626;2023-05-29T06:46:26;21.90;95.10
40291;DHT22;26000;48.304;13.626;2023-05-29T06:48:52;22.20;94.70
40291;DHT22;26000;48.304;13.626;2023-05-29T06:51:18;22.00;93.60
40291;DHT22;26000;48.304;13.626;2023-05-29T06:53:43;22.20;94.10
40291;DHT22;26000;48.304;13.626;2023-05-29T06:56:09;22.30;93.50
40291;DHT22;26000;48.304;13.626;2023-05-29T06:58:35;22.50;93.10
40291;DHT22;26000;48.304;13.626;2023-05-29T07:01:01;22.30;92.00
40291;DHT22;26000;48.304;13.626;2023-05-29T07:03:26;22.20;92.00
40291;DHT22;26000;48.304;13.626;2023-05-29T07:05:52;22.60;92.70
40291;DHT22;26000;48.304;13.626;2023-05-29T07:08:18;22.90;91.70
40291;DHT22;26000;48.304;13.626;2023-05-29T07:10:44;23.10;91.50
40291;DHT22;26000;48.304;13.626;2023-05-29T07:13:13;23.00;91.30
40291;DHT22;26000;48.304;13.626;2023-05-29T07:15:38;23.00;90.70
40291;DHT22;26000;48.304;13.626;2023-05-29T07:18:04;23.10;91.30
40291;DHT22;26000;48.304;13.626;2023-05-29T07:20:30;23.20;90.90
40291;DHT22;26000;48.304;13.626;2023-05-29T07:22:55;23.30;90.90
40291;DHT22;26000;48.304;13.626;2023-05-29T07:25:21;23.50;90.20
40291;DHT22;26000;48.304;13.626;2023-05-29T07:27:47;23.50;89.90
40291;DHT22;26000;48.304;13.626;2023-05-29T07:30:12;23.40;88.40
40291;DHT22;26000;48.304;13.626;2023-05-29T07:32:38;23.60;89.40
40291;DHT22;26000;48.304;13.626;2023-05-29T07:35:04;23.50;87.30
40291;DHT22;26000;48.304;13.626;2023-05-29T07:37:30;23.60;87.90
40291;DHT22;26000;48.304;13.626;2023-05-29T07:39:57;23.50;87.30
40291;DHT22;26000;48.304;13.626;2023-05-29T07:42:22;23.60;87.20
40291;DHT22;26000;48.304;13.626;2023-05-29T07:44:48;23.60;87.70
40291;DHT22;26000;48.304;13.626;2023-05-29T07:47:14;23.60;86.70
40291;DHT22;26000;48.304;13.626;2023-05-29T07:49:40;23.90;85.20
40291;DHT22;26000;48.304;13.626;2023-05-29T07:52:06;24.00;85.40
40291;DHT22;26000;48.304;13.626;2023-05-29T07:54:32;24.10;85.20
40291;DHT22;26000;48.304;13.626;2023-05-29T07:57:01;24.20;85.30
40291;DHT22;26000;48.304;13.626;2023-05-29T07:59:28;24.20;83.60
40291;DHT22;26000;48.304;13.626;2023-05-29T08:01:55;24.00;85.10
40291;DHT22;26000;48.304;13.626;2023-05-29T08:04:24;24.10;84.50
40291;DHT22;26000;48.304;13.626;2023-05-29T08:06:50;24.30;83.80
40291;DHT22;26000;48.304;13.626;2023-05-29T08:09:16;24.30;83.50
40291;DHT22;26000;48.304;13.626;2023-05-29T08:11:43;24.10;82.70
40291;DHT22;26000;48.304;13.626;2023-05-29T08:14:12;24.10;82.80
40291;DHT22;26000;48.304;13.626;2023-05-29T08:16:37;24.10;82.20
40291;DHT22;26000;48.304;13.626;2023-05-29T08:19:03;24.00;82.90
40291;DHT22;26000;48.304;13.626;2023-05-29T08:21:30;24.20;81.40
40291;DHT22;26000;48.304;13.626;2023-05-29T08:23:57;24.30;81.40
40291;DHT22;26000;48.304;13.626;2023-05-29T08:26:23;24.40;82.60
40291;DHT22;26000;48.304;13.626;2023-05-29T08:28:48;24.70;82.70
40291;DHT22;26000;48.304;13.626;2023-05-29T08:31:14;24.70;80.80
40291;DHT22;26000;48.304;13.626;2023-05-29T08:33:40;24.50;81.40
40291;DHT22;26000;48.304;13.626;2023-05-29T08:36:05;24.60;81.10
40291;DHT22;26000;48.304;13.626;2023-05-29T08:38:31;24.60;81.20
40291;DHT22;26000;48.304;13.626;2023-05-29T08:40:57;24.50;81.80
40291;DHT22;26000;48.304;13.626;2023-05-29T08:43:30;24.60;82.10
40291;DHT22;26000;48.304;13.626;2023-05-29T08:45:59;24.60;82.20
40291;DHT22;26000;48.304;13.626;2023-05-29T08:48:28;24.90;82.30
40291;DHT22;26000;48.304;13.626;2023-05-29T08:50:55;25.10;82.40
40291;DHT22;26000;48.304;13.626;2023-05-29T08:53:24;25.40;81.10
40291;DHT22;26000;48.304;13.626;2023-05-29T08:55:51;25.70;82.10
40291;DHT22;26000;48.304;13.626;2023-05-29T08:58:19;25.80;81.40
40291;DHT22;26000;48.304;13.626;2023-05-29T09:00:47;25.80;77.90
40291;DHT22;26000;48.304;13.626;2023-05-29T09:03:13;25.50;77.60
40291;DHT22;26000;48.304;13.626;2023-05-29T09:05:44;25.40;78.50
40291;DHT22;26000;48.304;13.626;2023-05-29T09:08:11;25.80;77.10
40291;DHT22;26000;48.304;13.626;2023-05-29T09:10:44;25.80;75.70
40291;DHT22;26000;48.304;13.626;2023-05-29T09:13:10;25.40;77.30
40291;DHT22;26000;48.304;13.626;2023-05-29T09:15:37;25.30;77.40
40291;DHT22;26000;48.304;13.626;2023-05-29T09:18:05;25.10;77.50
40291;DHT22;26000;48.304;13.626;2023-05-29T09:20:31;25.00;78.30
40291;DHT22;26000;48.304;13.626;2023-05-29T09:22:59;25.20;77.10
40291;DHT22;26000;48.304;13.626;2023-05-29T09:25:27;25.40;76.30
40291;DHT22;26000;48.304;13.626;2023-05-29T09:28:04;25.20;76.20
40291;DHT22;26000;48.304;13.626;2023-05-29T09:30:39;25.10;76.70
40291;DHT22;26000;48.304;13.626;2023-05-29T09:33:07;25.10;76.40
40291;DHT22;26000;48.304;13.626;2023-05-29T09:35:34;25.20;77.10
40291;DHT22;26000;48.304;13.626;2023-05-29T09:38:01;25.40;77.00
40291;DHT22;26000;48.304;13.626;2023-05-29T09:40:29;25.60;77.80
40291;DHT22;26000;48.304;13.626;2023-05-29T09:42:55;25.40;77.00
40291;DHT22;26000;48.304;13.626;2023-05-29T09:45:21;25.70;76.80
40291;DHT22;26000;48.304;13.626;2023-05-29T09:47:47;25.80;75.10
40291;DHT22;26000;48.304;13.626;2023-05-29T09:50:20;25.90;76.90
40291;DHT22;26000;48.304;13.626;2023-05-29T09:52:48;25.90;74.10
40291;DHT22;26000;48.304;13.626;2023-05-29T09:55:19;26.10;75.10
40291;DHT22;26000;48.304;13.626;2023-05-29T09:57:47;26.40;74.70
40291;DHT22;26000;48.304;13.626;2023-05-29T10:00:17;26.40;73.90
40291;DHT22;26000;48.304;13.626;2023-05-29T10:02:43;26.10;74.20
40291;DHT22;26000;48.304;13.626;2023-05-29T10:05:09;26.20;78.30
40291;DHT22;26000;48.304;13.626;2023-05-29T10:07:37;26.40;75.10
40291;DHT22;26000;48.304;13.626;2023-05-29T10:10:05;26.40;73.60
40291;DHT22;26000;48.304;13.626;2023-05-29T10:12:36;26.50;74.10
40291;DHT22;26000;48.304;13.626;2023-05-29T10:15:02;26.60;73.40
40291;DHT22;26000;48.304;13.626;2023-05-29T10:17:33;26.60;74.20
40291;DHT22;26000;48.304;13.626;2023-05-29T10:20:02;26.70;74.20
40291;DHT22;26000;48.304;13.626;2023-05-29T10:22:31;26.80;73.90
40291;DHT22;26000;48.304;13.626;2023-05-29T10:24:58;26.50;72.00
40291;DHT22;26000;48.304;13.626;2023-05-29T10:27:24;26.30;72.40
40291;DHT22;26000;48.304;13.626;2023-05-29T10:29:56;26.00;72.50
40291;DHT22;26000;48.304;13.626;2023-05-29T10:32:37;26.10;71.60
40291;DHT22;26000;48.304;13.626;2023-05-29T10:35:11;26.20;71.40
40291;DHT22;26000;48.304;13.626;2023-05-29T10:37:54;26.20;70.70
40291;DHT22;26000;48.304;13.626;2023-05-29T10:40:26;26.40;71.90
40291;DHT22;26000;48.304;13.626;2023-05-29T10:42:52;26.20;72.40
40291;DHT22;26000;48.304;13.626;2023-05-29T10:50:55;26.00;73.10
40291;DHT22;26000;48.304;13.626;2023-05-29T10:53:26;26.00;72.80
40291;DHT22;26000;48.304;13.626;2023-05-29T10:55:53;25.90;72.30
40291;DHT22;26000;48.304;13.626;2023-05-29T10:58:23;25.80;72.50
40291;DHT22;26000;48.304;13.626;2023-05-29T11:00:49;25.70;71.20
40291;DHT22;26000;48.304;13.626;2023-05-29T11:03:22;25.40;72.50
40291;DHT22;26000;48.304;13.626;2023-05-29T11:10:59;26.00;73.00
40291;DHT22;26000;48.304;13.626;2023-05-29T11:13:26;25.90;71.60
40291;DHT22;26000;48.304;13.626;2023-05-29T11:18:51;25.50;72.50
40291;DHT22;26000;48.304;13.626;2023-05-29T11:23:51;25.60;72.50
40291;DHT22;26000;48.304;13.626;2023-05-29T11:26:18;25.80;75.80
40291;DHT22;26000;48.304;13.626;2023-05-29T11:28:45;25.40;73.10
40291;DHT22;26000;48.304;13.626;2023-05-29T11:31:12;25.20;73.30
40291;DHT22;26000;48.304;13.626;2023-05-29T11:33:40;25.10;72.20
40291;DHT22;26000;48.304;13.626;2023-05-29T11:36:09;25.20;73.00
40291;DHT22;26000;48.304;13.626;2023-05-29T11:38:36;25.30;72.90
40291;DHT22;26000;48.304;13.626;2023-05-29T11:41:02;25.40;73.50
40291;DHT22;26000;48.304;13.626;2023-05-29T11:43:28;25.60;75.10
40291;DHT22;26000;48.304;13.626;2023-05-29T11:45:54;25.00;73.40
40291;DHT22;26000;48.304;13.626;2023-05-29T11:48:20;24.80;72.40
40291;DHT22;26000;48.304;13.626;2023-05-29T11:50:47;24.40;73.10
40291;DHT22;26000;48.304;13.626;2023-05-29T11:53:12;24.60;73.80
40291;DHT22;26000;48.304;13.626;2023-05-29T11:55:38;24.70;74.00
40291;DHT22;26000;48.304;13.626;2023-05-29T11:58:04;24.90;73.10
40291;DHT22;26000;48.304;13.626;2023-05-29T12:00:35;24.90;72.60
40291;DHT22;26000;48.304;13.626;2023-05-29T12:03:01;24.90;74.90
40291;DHT22;26000;48.304;13.626;2023-05-29T12:05:31;25.00;72.40
40291;DHT22;26000;48.304;13.626;2023-05-29T12:07:57;25.00;73.10
40291;DHT22;26000;48.304;13.626;2023-05-29T12:10:26;24.80;72.00
40291;DHT22;26000;48.304;13.626;2023-05-29T12:15:18;24.80;73.40
40291;DHT22;26000;48.304;13.626;2023-05-29T12:17:45;24.80;73.30
40291;DHT22;26000;48.304;13.626;2023-05-29T12:20:12;24.90;74.60
40291;DHT22;26000;48.304;13.626;2023-05-29T12:22:39;25.00;72.80
40291;DHT22;26000;48.304;13.626;2023-05-29T12:25:21;24.90;72.10
40291;DHT22;26000;48.304;13.626;2023-05-29T12:27:48;25.00;72.60
40291;DHT22;26000;48.304;13.626;2023-05-29T12:32:51;24.90;72.30
40291;DHT22;26000;48.304;13.626;2023-05-29T12:35:20;24.90;72.00
40291;DHT22;26000;48.304;13.626;2023-05-29T12:37:54;24.90;74.20
40291;DHT22;26000;48.304;13.626;2023-05-29T12:40:20;24.90;73.30
40291;DHT22;26000;48.304;13.626;2023-05-29T12:42:47;24.90;71.90
40291;DHT22;26000;48.304;13.626;2023-05-29T12:45:14;24.80;73.30
40291;DHT22;26000;48.304;13.626;2023-05-29T12:50:20;25.00;73.10
40291;DHT22;26000;48.304;13.626;2023-05-29T12:53:10;25.00;71.40
40291;DHT22;26000;48.304;13.626;2023-05-29T12:55:38;24.90;72.60
40291;DHT22;26000;48.304;13.626;2023-05-29T12:58:13;24.90;74.00
40291;DHT22;26000;48.304;13.626;2023-05-29T13:00:43;24.90;74.40
40291;DHT22;26000;48.304;13.626;2023-05-29T13:03:10;25.00;72.40
40291;DHT22;26000;48.304;13.626;2023-05-29T13:05:38;25.00;74.20
40291;DHT22;26000;48.304;13.626;2023-05-29T13:08:06;24.90;71.50
40291;DHT22;26000;48.304;13.626;2023-05-29T13:10:32;24.70;73.70
40291;DHT22;26000;48.304;13.626;2023-05-29T13:12:59;24.70;74.40
40291;DHT22;26000;48.304;13.626;2023-05-29T13:15:25;24.70;72.40
40291;DHT22;26000;48.304;13.626;2023-05-29T13:17:54;24.80;73.90
40291;DHT22;26000;48.304;13.626;2023-05-29T13:20:20;24.80;73.20
40291;DHT22;26000;48.304;13.626;2023-05-29T13:22:46;24.70;72.10
40291;DHT22;26000;48.304;13.626;2023-05-29T13:25:14;24.60;73.10
40291;DHT22;26000;48.304;13.626;2023-05-29T13:27:45;24.60;74.40
40291;DHT22;26000;48.304;13.626;2023-05-29T13:30:11;24.60;73.80
40291;DHT22;26000;48.304;13.626;2023-05-29T13:32:38;24.70;76.70
40291;DHT22;26000;48.304;13.626;2023-05-29T13:35:04;24.70;73.60
40291;DHT22;26000;48.304;13.626;2023-05-29T13:37:29;24.60;72.90
40291;DHT22;26000;48.304;13.626;2023-05-29T13:39:55;24.60;74.60
40291;DHT22;26000;48.304;13.626;2023-05-29T13:42:21;24.70;74.90
40291;DHT22;26000;48.304;13.626;2023-05-29T13:44:48;24.60;74.00
40291;DHT22;26000;48.304;13.626;2023-05-29T13:47:14;24.50;74.00
40291;DHT22;26000;48.304;13.626;2023-05-29T13:49:40;24.60;75.10
40291;DHT22;26000;48.304;13.626;2023-05-29T13:52:06;24.60;73.30
40291;DHT22;26000;48.304;13.626;2023-05-29T13:54:31;24.60;73.90
40291;DHT22;26000;48.304;13.626;2023-05-29T13:57:01;24.50;74.50
40291;DHT22;26000;48.304;13.626;2023-05-29T13:59:28;24.60;73.90
40291;DHT22;26000;48.304;13.626;2023-05-29T14:01:54;24.60;74.30
40291;DHT22;26000;48.304;13.626;2023-05-29T14:04:20;24.60;73.20
40291;DHT22;26000;48.304;13.626;2023-05-29T14:06:46;24.60;75.50
40291;DHT22;26000;48.304;13.626;2023-05-29T14:09:11;24.50;75.30
40291;DHT22;26000;48.304;13.626;2023-05-29T14:11:37;24.50;73.90
40291;DHT22;26000;48.304;13.626;2023-05-29T14:14:03;24.50;73.50
40291;DHT22;26000;48.304;13.626;2023-05-29T14:16:30;24.50;74.60
40291;DHT22;26000;48.304;13.626;2023-05-29T14:18:55;24.50;74.50
40291;DHT22;26000;48.304;13.626;2023-05-29T14:21:21;24.40;74.70
40291;DHT22;26000;48.304;13.626;2023-05-29T14:23:47;24.60;74.50
40291;DHT22;26000;48.304;13.626;2023-05-29T14:26:13;24.60;75.20
40291;DHT22;26000;48.304;13.626;2023-05-29T14:28:38;24.70;73.90
40291;DHT22;26000;48.304;13.626;2023-05-29T14:31:05;24.70;72.40
40291;DHT22;26000;48.304;13.626;2023-05-29T14:33:31;24.70;73.40
40291;DHT22;26000;48.304;13.626;2023-05-29T14:35:57;24.70;73.40
40291;DHT22;26000;48.304;13.626;2023-05-29T14:38:23;24.70;73.70
40291;DHT22;26000;48.304;13.626;2023-05-29T14:40:49;24.60;75.40
40291;DHT22;26000;48.304;13.626;2023-05-29T14:43:14;24.60;75.60
40291;DHT22;26000;48.304;13.626;2023-05-29T14:45:40;24.60;74.00
40291;DHT22;26000;48.304;13.626;2023-05-29T14:48:06;24.60;74.00
40291;DHT22;26000;48.304;13.626;2023-05-29T14:50:32;24.60;73.90
40291;DHT22;26000;48.304;13.626;2023-05-29T14:52:57;24.70;73.80
40291;DHT22;26000;48.304;13.626;2023-05-29T14:55:23;24.80;74.00
40291;DHT22;26000;48.304;13.626;2023-05-29T14:57:48;24.60;71.10
40291;DHT22;26000;48.304;13.626;2023-05-29T15:00:14;24.60;70.40
40291;DHT22;26000;48.304;13.626;2023-05-29T15:02:40;24.50;72.30
40291;DHT22;26000;48.304;13.626;2023-05-29T15:05:06;24.70;70.80
40291;DHT22;26000;48.304;13.626;2023-05-29T15:07:32;24.60;70.40
40291;DHT22;26000;48.304;13.626;2023-05-29T15:10:02;24.60;70.70
40291;DHT22;26000;48.304;13.626;2023-05-29T15:12:28;24.70;72.30
40291;DHT22;26000;48.304;13.626;2023-05-29T15:14:54;24.80;72.50
40291;DHT22;26000;48.304;13.626;2023-05-29T15:17:19;24.90;71.00
40291;DHT22;26000;48.304;13.626;2023-05-29T15:19:45;24.90;71.40
40291;DHT22;26000;48.304;13.626;2023-05-29T15:22:11;24.70;69.70
40291;DHT22;26000;48.304;13.626;2023-05-29T15:24:37;24.60;71.10
40291;DHT22;26000;48.304;13.626;2023-05-29T15:27:02;24.60;71.70
40291;DHT22;26000;48.304;13.626;2023-05-29T15:29:34;24.60;71.30
40291;DHT22;26000;48.304;13.626;2023-05-29T15:32:00;24.60;70.50
40291;DHT22;26000;48.304;13.626;2023-05-29T15:34:26;24.70;71.60
40291;DHT22;26000;48.304;13.626;2023-05-29T15:36:52;24.60;71.70
40291;DHT22;26000;48.304;13.626;2023-05-29T15:39:18;24.60;71.20
40291;DHT22;26000;48.304;13.626;2023-05-29T15:41:43;24.70;69.90
40291;DHT22;26000;48.304;13.626;2023-05-29T15:44:09;24.70;71.40
40291;DHT22;26000;48.304;13.626;2023-05-29T15:46:34;24.60;70.80